sensor_id;sensor_type;location;lat;lon;timestamp;temperature;humidity
22035;DHT22;11181;51.002;4.356;2023-03-01T00:01:02;6.00;96.40
22035;DHT22;11181;51.002;4.356;2023-03-01T00:03:29;6.00;96.40
22035;DHT22;11181;51.002;4.356;2023-03-01T00:05:57;6.00;96.50
22035;DHT22;11181;51.002;4.356;2023-03-01T00:08:26;5.80;96.60
22035;DHT22;11181;51.002;4.356;2023-03-01T00:11:00;5.70;96.70
22035;DHT22;11181;51.002;4.356;2023-03-01T00:13:28;5.80;96.70
22035;DHT22;11181;51.002;4.356;2023-03-01T00:15:55;5.70;96.90
22035;DHT22;11181;51.002;4.356;2023-03-01T00:18:22;5.70;96.80
22035;DHT22;11181;51.002;4.356;2023-03-01T00:20:52;5.70;96.90
22035;DHT22;11181;51.002;4.356;2023-03-01T00:23:20;5.60;96.90
22035;DHT22;11181;51.002;4.356;2023-03-01T00:25:48;5.60;96.90
22035;DHT22;11181;51.002;4.356;2023-03-01T00:28:16;5.60;97.00
22035;DHT22;11181;51.002;4.356;2023-03-01T00:30:43;5.70;97.00
22035;DHT22;11181;51.002;4.356;2023-03-01T00:33:10;5.70;96.90
22035;DHT22;11181;51.002;4.356;2023-03-01T00:35:37;5.70;97.20
22035;DHT22;11181;51.002;4.356;2023-03-01T00:38:04;5.70;97.20
22035;DHT22;11181;51.002;4.356;2023-03-01T00:40:33;5.60;97.30
22035;DHT22;11181;51.002;4.356;2023-03-01T00:43:02;5.40;97.40
22035;DHT22;11181;51.002;4.356;2023-03-01T00:45:29;5.40;97.60
22035;DHT22;11181;51.002;4.356;2023-03-01T00:47:57;5.30;97.90
22035;DHT22;11181;51.002;4.356;2023-03-01T00:50:24;5.00;98.00
22035;DHT22;11181;51.002;4.356;2023-03-01T00:52:53;5.00;97.90
22035;DHT22;11181;51.002;4.356;2023-03-01T00:55:20;4.90;98.20
22035;DHT22;11181;51.002;4.356;2023-03-01T00:57:47;5.00;98.20
22035;DHT22;11181;51.002;4.356;2023-03-01T01:00:16;4.90;98.30
22035;DHT22;11181;51.002;4.356;2023-03-01T01:02:44;4.80;98.40
22035;DHT22;11181;51.002;4.356;2023-03-01T01:05:12;4.90;98.50
22035;DHT22;11181;51.002;4.356;2023-03-01T01:07:39;4.90;98.30
22035;DHT22;11181;51.002;4.356;2023-03-01T01:10:06;4.70;98.80
22035;DHT22;11181;51.002;4.356;2023-03-01T01:12:33;4.60;99.00
22035;DHT22;11181;51.002;4.356;2023-03-01T01:15:01;4.60;99.20
22035;DHT22;11181;51.002;4.356;2023-03-01T01:17:29;4.60;99.30
22035;DHT22;11181;51.002;4.356;2023-03-01T01:19:56;4.70;99.00
22035;DHT22;11181;51.002;4.356;2023-03-01T01:22:23;4.70;99.00
22035;DHT22;11181;51.002;4.356;2023-03-01T01:24:49;4.80;99.20
22035;DHT22;11181;51.002;4.356;2023-03-01T01:27:16;4.90;99.20
22035;DHT22;11181;51.002;4.356;2023-03-01T01:29:43;5.00;98.80
22035;DHT22;11181;51.002;4.356;2023-03-01T01:32:10;4.90;98.80
22035;DHT22;11181;51.002;4.356;2023-03-01T01:34:38;4.90;99.20
22035;DHT22;11181;51.002;4.356;2023-03-01T01:37:05;4.90;99.10
22035;DHT22;11181;51.002;4.356;2023-03-01T01:39:33;4.90;99.20
22035;DHT22;11181;51.002;4.356;2023-03-01T01:42:01;4.90;99.50
22035;DHT22;11181;51.002;4.356;2023-03-01T01:44:28;4.90;99.30
22035;DHT22;11181;51.002;4.356;2023-03-01T01:46:58;4.70;99.10
22035;DHT22;11181;51.002;4.356;2023-03-01T01:49:31;4.60;99.40
22035;DHT22;11181;51.002;4.356;2023-03-01T01:52:05;4.60;99.40
22035;DHT22;11181;51.002;4.356;2023-03-01T01:54:40;4.60;99.70
22035;DHT22;11181;51.002;4.356;2023-03-01T01:57:13;4.60;99.90
22035;DHT22;11181;51.002;4.356;2023-03-01T01:59:43;4.60;99.80
22035;DHT22;11181;51.002;4.356;2023-03-01T02:02:13;4.70;99.80
22035;DHT22;11181;51.002;4.356;2023-03-01T02:04:40;4.70;99.90
22035;DHT22;11181;51.002;4.356;2023-03-01T02:07:13;4.70;99.90
22035;DHT22;11181;51.002;4.356;2023-03-01T02:09:42;4.80;99.90
22035;DHT22;11181;51.002;4.356;2023-03-01T02:12:13;4.90;99.90
22035;DHT22;11181;51.002;4.356;2023-03-01T02:14:41;4.90;99.90
22035;DHT22;11181;51.002;4.356;2023-03-01T02:17:07;4.70;99.90
22035;DHT22;11181;51.002;4.356;2023-03-01T02:19:43;4.70;99.90
22035;DHT22;11181;51.002;4.356;2023-03-01T02:22:20;4.50;99.90
22035;DHT22;11181;51.002;4.356;2023-03-01T02:25:00;4.30;99.90
22035;DHT22;11181;51.002;4.356;2023-03-01T02:27:37;4.40;99.90
22035;DHT22;11181;51.002;4.356;2023-03-01T02:30:07;4.50;99.90
22035;DHT22;11181;51.002;4.356;2023-03-01T02:32:38;4.60;99.90
22035;DHT22;11181;51.002;4.356;2023-03-01T02:35:08;4.70;99.90
22035;DHT22;11181;51.002;4.356;2023-03-01T02:37:36;4.70;99.90
22035;DHT22;11181;51.002;4.356;2023-03-01T02:40:06;4.70;99.90
22035;DHT22;11181;51.002;4.356;2023-03-01T02:42:42;4.70;99.90
22035;DHT22;11181;51.002;4.356;2023-03-01T02:45:13;4.30;99.90
22035;DHT22;11181;51.002;4.356;2023-03-01T02:47:40;4.30;99.90
22035;DHT22;11181;51.002;4.356;2023-03-01T02:50:20;4.30;99.90
22035;DHT22;11181;51.002;4.356;2023-03-01T02:52:55;4.20;99.90
22035;DHT22;11181;51.002;4.356;2023-03-01T02:55:24;4.10;99.90
22035;DHT22;11181;51.002;4.356;2023-03-01T02:57:51;3.80;99.90
22035;DHT22;11181;51.002;4.356;2023-03-01T03:00:22;3.80;99.90
22035;DHT22;11181;51.002;4.356;2023-03-01T03:02:51;3.80;99.90
22035;DHT22;11181;51.002;4.356;2023-03-01T03:05:21;3.90;99.90
22035;DHT22;11181;51.002;4.356;2023-03-01T03:07:49;3.90;99.90
22035;DHT22;11181;51.002;4.356;2023-03-01T03:10:17;3.80;99.90
22035;DHT22;11181;51.002;4.356;2023-03-01T03:12:49;3.70;99.90
22035;DHT22;11181;51.002;4.356;2023-03-01T03:15:16;3.60;99.90
22035;DHT22;11181;51.002;4.356;2023-03-01T03:17:45;3.70;99.90
22035;DHT22;11181;51.002;4.356;2023-03-01T03:20:14;3.70;99.90
22035;DHT22;11181;51.002;4.356;2023-03-01T03:22:45;3.80;99.90
22035;DHT22;11181;51.002;4.356;2023-03-01T03:25:12;3.80;99.90
22035;DHT22;11181;51.002;4.356;2023-03-01T03:27:40;4.00;99.90
22035;DHT22;11181;51.002;4.356;2023-03-01T03:30:09;4.10;99.90
22035;DHT22;11181;51.002;4.356;2023-03-01T03:32:38;4.10;99.90
22035;DHT22;11181;51.002;4.356;2023-03-01T03:35:09;4.20;99.90
22035;DHT22;11181;51.002;4.356;2023-03-01T03:37:36;4.30;99.90
22035;DHT22;11181;51.002;4.356;2023-03-01T03:40:21;4.30;99.90
22035;DHT22;11181;51.002;4.356;2023-03-01T03:42:48;4.30;99.90
22035;DHT22;11181;51.002;4.356;2023-03-01T03:45:15;4.30;99.90
22035;DHT22;11181;51.002;4.356;2023-03-01T03:47:42;4.30;99.90
22035;DHT22;11181;51.002;4.356;2023-03-01T03:50:11;4.30;99.90
22035;DHT22;11181;51.002;4.356;2023-03-01T03:52:39;4.30;99.90
22035;DHT22;11181;51.002;4.356;2023-03-01T03:55:07;4.40;99.90
22035;DHT22;11181;51.002;4.356;2023-03-01T03:57:37;4.30;99.90
22035;DHT22;11181;51.002;4.356;2023-03-01T04:00:07;4.20;99.90
22035;DHT22;11181;51.002;4.356;2023-03-01T04:02:38;4.10;99.90
22035;DHT22;11181;51.002;4.356;2023-03-01T04:05:06;4.10;99.90
22035;DHT22;11181;51.002;4.356;2023-03-01T04:07:36;4.00;99.90
22035;DHT22;11181;51.002;4.356;2023-03-01T04:10:04;4.00;99.90
22035;DHT22;11181;51.002;4.356;2023-03-01T04:12:32;4.00;99.90
22035;DHT22;11181;51.002;4.356;2023-03-01T04:14:59;4.00;99.90
22035;DHT22;11181;51.002;4.356;2023-03-01T04:17:26;4.00;99.90
22035;DHT22;11181;51.002;4.356;2023-03-01T04:19:53;4.00;99.90
22035;DHT22;11181;51.002;4.356;2023-03-01T04:22:20;3.90;99.90
22035;DHT22;11181;51.002;4.356;2023-03-01T04:24:48;3.90;99.90
22035;DHT22;11181;51.002;4.356;2023-03-01T04:27:15;3.90;99.90
22035;DHT22;11181;51.002;4.356;2023-03-01T04:29:42;4.00;99.90
22035;DHT22;11181;51.002;4.356;2023-03-01T04:32:09;4.00;99.90
22035;DHT22;11181;51.002;4.356;2023-03-01T04:34:36;4.00;99.90
22035;DHT22;11181;51.002;4.356;2023-03-01T04:37:03;4.00;99.90
22035;DHT22;11181;51.002;4.356;2023-03-01T04:39:30;3.90;99.90
22035;DHT22;11181;51.002;4.356;2023-03-01T04:41:59;3.80;99.90
22035;DHT22;11181;51.002;4.356;2023-03-01T04:44:26;3.80;99.90
22035;DHT22;11181;51.002;4.356;2023-03-01T04:46:53;3.70;99.90
22035;DHT22;11181;51.002;4.356;2023-03-01T04:49:20;3.70;99.90
22035;DHT22;11181;51.002;4.356;2023-03-01T04:51:47;3.70;99.90
22035;DHT22;11181;51.002;4.356;2023-03-01T04:54:14;3.70;99.90
22035;DHT22;11181;51.002;4.356;2023-03-01T04:56:41;3.80;99.90
22035;DHT22;11181;51.002;4.356;2023-03-01T04:59:11;3.80;99.90
22035;DHT22;11181;51.002;4.356;2023-03-01T05:01:38;3.80;99.90
22035;DHT22;11181;51.002;4.356;2023-03-01T05:04:08;3.90;99.90
22035;DHT22;11181;51.002;4.356;2023-03-01T05:06:38;3.90;99.90
22035;DHT22;11181;51.002;4.356;2023-03-01T05:09:06;3.90;99.90
22035;DHT22;11181;51.002;4.356;2023-03-01T05:11:33;3.80;99.90
22035;DHT22;11181;51.002;4.356;2023-03-01T05:14:01;3.90;99.90
22035;DHT22;11181;51.002;4.356;2023-03-01T05:16:29;3.80;99.90
22035;DHT22;11181;51.002;4.356;2023-03-01T05:18:57;3.80;99.90
22035;DHT22;11181;51.002;4.356;2023-03-01T05:21:24;3.70;99.90
22035;DHT22;11181;51.002;4.356;2023-03-01T05:23:52;3.60;99.90
22035;DHT22;11181;51.002;4.356;2023-03-01T05:26:19;3.60;99.90
22035;DHT22;11181;51.002;4.356;2023-03-01T05:28:47;3.60;99.90
22035;DHT22;11181;51.002;4.356;2023-03-01T05:31:14;3.50;99.90
22035;DHT22;11181;51.002;4.356;2023-03-01T05:33:42;3.40;99.90
22035;DHT22;11181;51.002;4.356;2023-03-01T05:36:11;3.40;99.90
22035;DHT22;11181;51.002;4.356;2023-03-01T05:38:38;3.40;99.90
22035;DHT22;11181;51.002;4.356;2023-03-01T05:41:04;3.50;99.90
22035;DHT22;11181;51.002;4.356;2023-03-01T05:43:31;3.60;99.90
22035;DHT22;11181;51.002;4.356;2023-03-01T05:45:59;3.70;99.90
22035;DHT22;11181;51.002;4.356;2023-03-01T05:48:26;3.70;99.90
22035;DHT22;11181;51.002;4.356;2023-03-01T05:50:55;3.70;99.90
22035;DHT22;11181;51.002;4.356;2023-03-01T05:53:21;3.60;99.90
22035;DHT22;11181;51.002;4.356;2023-03-01T05:55:49;3.60;99.90
22035;DHT22;11181;51.002;4.356;2023-03-01T05:58:18;3.60;99.90
22035;DHT22;11181;51.002;4.356;2023-03-01T06:00:46;3.60;99.90
22035;DHT22;11181;51.002;4.356;2023-03-01T06:03:15;3.30;99.90
22035;DHT22;11181;51.002;4.356;2023-03-01T06:05:43;3.10;99.90
22035;DHT22;11181;51.002;4.356;2023-03-01T06:08:12;3.10;99.90
22035;DHT22;11181;51.002;4.356;2023-03-01T06:10:39;3.00;99.90
22035;DHT22;11181;51.002;4.356;2023-03-01T06:13:06;3.10;99.90
22035;DHT22;11181;51.002;4.356;2023-03-01T06:15:33;3.20;99.90
22035;DHT22;11181;51.002;4.356;2023-03-01T06:18:00;3.30;99.90
22035;DHT22;11181;51.002;4.356;2023-03-01T06:20:28;3.40;99.90
22035;DHT22;11181;51.002;4.356;2023-03-01T06:22:56;3.40;99.90
22035;DHT22;11181;51.002;4.356;2023-03-01T06:25:26;3.40;99.90
22035;DHT22;11181;51.002;4.356;2023-03-01T06:27:53;3.30;99.90
22035;DHT22;11181;51.002;4.356;2023-03-01T06:30:22;3.20;99.90
22035;DHT22;11181;51.002;4.356;2023-03-01T06:32:49;3.20;99.90
22035;DHT22;11181;51.002;4.356;2023-03-01T06:35:17;3.30;99.90
22035;DHT22;11181;51.002;4.356;2023-03-01T06:37:45;3.40;99.90
22035;DHT22;11181;51.002;4.356;2023-03-01T06:40:13;3.40;99.90
22035;DHT22;11181;51.002;4.356;2023-03-01T06:42:43;3.50;99.90
22035;DHT22;11181;51.002;4.356;2023-03-01T06:45:10;3.50;99.90
22035;DHT22;11181;51.002;4.356;2023-03-01T06:47:37;3.60;99.90
22035;DHT22;11181;51.002;4.356;2023-03-01T06:50:05;3.70;99.90
22035;DHT22;11181;51.002;4.356;2023-03-01T06:52:32;3.80;99.90
22035;DHT22;11181;51.002;4.356;2023-03-01T06:54:59;3.80;99.90
22035;DHT22;11181;51.002;4.356;2023-03-01T06:57:26;3.90;99.90
22035;DHT22;11181;51.002;4.356;2023-03-01T06:59:54;3.90;99.90
22035;DHT22;11181;51.002;4.356;2023-03-01T07:02:21;3.90;99.90
22035;DHT22;11181;51.002;4.356;2023-03-01T07:04:49;3.90;99.90
22035;DHT22;11181;51.002;4.356;2023-03-01T07:07:16;3.80;99.90
22035;DHT22;11181;51.002;4.356;2023-03-01T07:09:44;3.70;99.90
22035;DHT22;11181;51.002;4.356;2023-03-01T07:12:11;3.60;99.90
22035;DHT22;11181;51.002;4.356;2023-03-01T07:14:38;3.70;99.90
22035;DHT22;11181;51.002;4.356;2023-03-01T07:17:06;3.90;99.90
22035;DHT22;11181;51.002;4.356;2023-03-01T07:19:33;4.00;99.90
22035;DHT22;11181;51.002;4.356;2023-03-01T07:22:00;4.10;99.90
22035;DHT22;11181;51.002;4.356;2023-03-01T07:24:29;4.30;99.90
22035;DHT22;11181;51.002;4.356;2023-03-01T07:26:56;4.20;99.90
22035;DHT22;11181;51.002;4.356;2023-03-01T07:29:23;4.40;99.90
22035;DHT22;11181;51.002;4.356;2023-03-01T07:31:50;4.60;99.90
22035;DHT22;11181;51.002;4.356;2023-03-01T07:34:18;4.80;99.90
22035;DHT22;11181;51.002;4.356;2023-03-01T07:36:45;4.90;99.90
22035;DHT22;11181;51.002;4.356;2023-03-01T07:39:13;5.10;99.90
22035;DHT22;11181;51.002;4.356;2023-03-01T07:41:39;4.90;99.90
22035;DHT22;11181;51.002;4.356;2023-03-01T07:44:07;4.80;99.90
22035;DHT22;11181;51.002;4.356;2023-03-01T07:46:34;5.00;99.90
22035;DHT22;11181;51.002;4.356;2023-03-01T07:49:01;5.20;99.90
22035;DHT22;11181;51.002;4.356;2023-03-01T07:51:30;5.40;99.90
22035;DHT22;11181;51.002;4.356;2023-03-01T07:53:56;5.60;99.90
22035;DHT22;11181;51.002;4.356;2023-03-01T07:56:23;5.80;99.90
22035;DHT22;11181;51.002;4.356;2023-03-01T07:58:50;5.60;99.90
22035;DHT22;11181;51.002;4.356;2023-03-01T08:01:19;5.70;99.90
22035;DHT22;11181;51.002;4.356;2023-03-01T08:03:47;5.80;99.90
22035;DHT22;11181;51.002;4.356;2023-03-01T08:06:15;5.70;99.90
22035;DHT22;11181;51.002;4.356;2023-03-01T08:08:44;5.70;99.90
22035;DHT22;11181;51.002;4.356;2023-03-01T08:11:13;5.80;99.90
22035;DHT22;11181;51.002;4.356;2023-03-01T08:13:41;5.80;99.90
22035;DHT22;11181;51.002;4.356;2023-03-01T08:16:10;5.90;99.90
22035;DHT22;11181;51.002;4.356;2023-03-01T08:18:38;6.00;99.90
22035;DHT22;11181;51.002;4.356;2023-03-01T08:21:06;6.20;99.90
22035;DHT22;11181;51.002;4.356;2023-03-01T08:23:33;6.30;99.90
22035;DHT22;11181;51.002;4.356;2023-03-01T08:26:06;5.90;99.90
22035;DHT22;11181;51.002;4.356;2023-03-01T08:28:33;5.70;99.90
22035;DHT22;11181;51.002;4.356;2023-03-01T08:31:01;5.90;99.90
22035;DHT22;11181;51.002;4.356;2023-03-01T08:33:28;6.00;99.90
22035;DHT22;11181;51.002;4.356;2023-03-01T08:36:02;6.50;99.90
22035;DHT22;11181;51.002;4.356;2023-03-01T08:38:29;7.00;99.90
22035;DHT22;11181;51.002;4.356;2023-03-01T08:40:59;7.00;99.90
22035;DHT22;11181;51.002;4.356;2023-03-01T08:43:28;7.10;99.90
22035;DHT22;11181;51.002;4.356;2023-03-01T08:45:55;7.20;99.90
22035;DHT22;11181;51.002;4.356;2023-03-01T08:48:23;7.00;99.90
22035;DHT22;11181;51.002;4.356;2023-03-01T08:50:50;7.30;99.90
22035;DHT22;11181;51.002;4.356;2023-03-01T08:53:17;7.60;99.90
22035;DHT22;11181;51.002;4.356;2023-03-01T08:55:44;7.80;99.90
22035;DHT22;11181;51.002;4.356;2023-03-01T08:58:11;7.40;99.90
22035;DHT22;11181;51.002;4.356;2023-03-01T09:00:40;6.90;99.90
22035;DHT22;11181;51.002;4.356;2023-03-01T09:03:06;7.10;99.90
22035;DHT22;11181;51.002;4.356;2023-03-01T09:05:34;7.50;99.90
22035;DHT22;11181;51.002;4.356;2023-03-01T09:08:03;7.40;99.90
22035;DHT22;11181;51.002;4.356;2023-03-01T09:10:30;6.90;99.90
22035;DHT22;11181;51.002;4.356;2023-03-01T09:12:56;7.00;99.90
22035;DHT22;11181;51.002;4.356;2023-03-01T09:15:23;6.90;99.90
22035;DHT22;11181;51.002;4.356;2023-03-01T09:17:52;6.60;99.90
22035;DHT22;11181;51.002;4.356;2023-03-01T09:20:19;6.50;99.90
22035;DHT22;11181;51.002;4.356;2023-03-01T09:22:46;7.00;99.90
22035;DHT22;11181;51.002;4.356;2023-03-01T09:25:12;7.30;99.90
22035;DHT22;11181;51.002;4.356;2023-03-01T09:27:40;7.00;99.90
22035;DHT22;11181;51.002;4.356;2023-03-01T09:30:08;7.00;99.90
22035;DHT22;11181;51.002;4.356;2023-03-01T09:32:35;6.90;99.90
22035;DHT22;11181;51.002;4.356;2023-03-01T09:35:05;6.80;99.90
22035;DHT22;11181;51.002;4.356;2023-03-01T09:37:32;7.30;99.90
22035;DHT22;11181;51.002;4.356;2023-03-01T09:39:59;7.10;99.90
22035;DHT22;11181;51.002;4.356;2023-03-01T09:42:27;7.50;99.90
22035;DHT22;11181;51.002;4.356;2023-03-01T09:44:59;8.30;99.90
22035;DHT22;11181;51.002;4.356;2023-03-01T09:47:29;8.90;99.90
22035;DHT22;11181;51.002;4.356;2023-03-01T09:50:02;9.40;99.90
22035;DHT22;11181;51.002;4.356;2023-03-01T09:52:40;9.40;98.50
22035;DHT22;11181;51.002;4.356;2023-03-01T09:55:11;9.20;98.50
22035;DHT22;11181;51.002;4.356;2023-03-01T09:57:45;8.80;98.60
22035;DHT22;11181;51.002;4.356;2023-03-01T10:00:21;8.90;99.30
22035;DHT22;11181;51.002;4.356;2023-03-01T10:02:54;9.10;99.70
22035;DHT22;11181;51.002;4.356;2023-03-01T10:05:35;9.70;99.10
22035;DHT22;11181;51.002;4.356;2023-03-01T10:11:05;10.70;96.40
22035;DHT22;11181;51.002;4.356;2023-03-01T10:13:47;9.90;96.80
22035;DHT22;11181;51.002;4.356;2023-03-01T10:16:22;9.50;97.80
22035;DHT22;11181;51.002;4.356;2023-03-01T10:18:54;9.70;97.90
22035;DHT22;11181;51.002;4.356;2023-03-01T10:21:22;9.20;97.20
22035;DHT22;11181;51.002;4.356;2023-03-01T10:23:51;8.70;97.70
22035;DHT22;11181;51.002;4.356;2023-03-01T10:26:34;9.10;97.70
22035;DHT22;11181;51.002;4.356;2023-03-01T10:29:04;8.70;97.70
22035;DHT22;11181;51.002;4.356;2023-03-01T10:31:39;9.20;98.70
22035;DHT22;11181;51.002;4.356;2023-03-01T10:34:10;9.40;98.20
22035;DHT22;11181;51.002;4.356;2023-03-01T10:36:38;9.90;98.00
22035;DHT22;11181;51.002;4.356;2023-03-01T10:39:13;10.00;95.50
22035;DHT22;11181;51.002;4.356;2023-03-01T10:41:53;10.10;96.90
22035;DHT22;11181;51.002;4.356;2023-03-01T10:44:36;10.10;95.40
22035;DHT22;11181;51.002;4.356;2023-03-01T10:47:14;10.30;95.10
22035;DHT22;11181;51.002;4.356;2023-03-01T10:49:55;9.80;94.50
22035;DHT22;11181;51.002;4.356;2023-03-01T10:52:25;9.40;95.40
22035;DHT22;11181;51.002;4.356;2023-03-01T10:54:56;9.90;96.00
22035;DHT22;11181;51.002;4.356;2023-03-01T10:57:32;9.50;94.10
22035;DHT22;11181;51.002;4.356;2023-03-01T11:00:15;9.10;95.00
22035;DHT22;11181;51.002;4.356;2023-03-01T11:02:47;9.00;95.60
22035;DHT22;11181;51.002;4.356;2023-03-01T11:05:19;9.20;95.70
22035;DHT22;11181;51.002;4.356;2023-03-01T11:07:51;9.90;95.70
22035;DHT22;11181;51.002;4.356;2023-03-01T11:10:21;10.20;94.10
22035;DHT22;11181;51.002;4.356;2023-03-01T11:12:50;10.80;94.00
22035;DHT22;11181;51.002;4.356;2023-03-01T11:15:25;11.10;93.40
22035;DHT22;11181;51.002;4.356;2023-03-01T11:17:53;10.80;93.40
22035;DHT22;11181;51.002;4.356;2023-03-01T11:20:27;11.00;93.40
22035;DHT22;11181;51.002;4.356;2023-03-01T11:22:58;11.10;93.10
22035;DHT22;11181;51.002;4.356;2023-03-01T11:25:31;11.10;92.80
22035;DHT22;11181;51.002;4.356;2023-03-01T11:28:00;11.30;91.90
22035;DHT22;11181;51.002;4.356;2023-03-01T11:30:30;11.20;91.30
22035;DHT22;11181;51.002;4.356;2023-03-01T11:33:08;10.40;92.20
22035;DHT22;11181;51.002;4.356;2023-03-01T11:35:42;10.20;92.40
22035;DHT22;11181;51.002;4.356;2023-03-01T11:38:19;10.30;92.50
22035;DHT22;11181;51.002;4.356;2023-03-01T11:40:52;10.40;91.90
22035;DHT22;11181;51.002;4.356;2023-03-01T11:43:25;10.80;92.40
22035;DHT22;11181;51.002;4.356;2023-03-01T11:46:08;11.30;92.40
22035;DHT22;11181;51.002;4.356;2023-03-01T11:48:47;11.60;93.10
22035;DHT22;11181;51.002;4.356;2023-03-01T11:51:23;12.40;92.30
22035;DHT22;11181;51.002;4.356;2023-03-01T11:54:01;12.80;90.80
22035;DHT22;11181;51.002;4.356;2023-03-01T11:56:34;13.30;91.20
22035;DHT22;11181;51.002;4.356;2023-03-01T12:05:16;13.80;89.20
22035;DHT22;11181;51.002;4.356;2023-03-01T12:07:51;13.60;87.90
22035;DHT22;11181;51.002;4.356;2023-03-01T12:10:27;13.60;90.70
22035;DHT22;11181;51.002;4.356;2023-03-01T12:16:10;13.70;88.60
22035;DHT22;11181;51.002;4.356;2023-03-01T12:18:58;13.90;89.40
22035;DHT22;11181;51.002;4.356;2023-03-01T12:21:42;14.00;86.50
22035;DHT22;11181;51.002;4.356;2023-03-01T12:24:35;13.40;87.60
22035;DHT22;11181;51.002;4.356;2023-03-01T12:27:32;13.00;87.60
22035;DHT22;11181;51.002;4.356;2023-03-01T12:30:16;13.00;87.30
22035;DHT22;11181;51.002;4.356;2023-03-01T12:32:53;13.80;89.90
22035;DHT22;11181;51.002;4.356;2023-03-01T12:35:39;13.70;86.50
22035;DHT22;11181;51.002;4.356;2023-03-01T12:38:21;13.40;86.20
22035;DHT22;11181;51.002;4.356;2023-03-01T12:41:05;13.90;86.90
22035;DHT22;11181;51.002;4.356;2023-03-01T12:43:47;13.10;85.00
22035;DHT22;11181;51.002;4.356;2023-03-01T12:46:32;12.40;86.00
22035;DHT22;11181;51.002;4.356;2023-03-01T12:49:10;12.20;87.00
22035;DHT22;11181;51.002;4.356;2023-03-01T12:51:40;12.30;88.30
22035;DHT22;11181;51.002;4.356;2023-03-01T12:54:15;12.90;85.30
22035;DHT22;11181;51.002;4.356;2023-03-01T12:56:43;12.80;85.70
22035;DHT22;11181;51.002;4.356;2023-03-01T12:59:19;13.10;83.60
22035;DHT22;11181;51.002;4.356;2023-03-01T13:01:53;12.60;83.20
22035;DHT22;11181;51.002;4.356;2023-03-01T13:04:45;12.60;85.30
22035;DHT22;11181;51.002;4.356;2023-03-01T13:07:22;12.70;86.60
22035;DHT22;11181;51.002;4.356;2023-03-01T13:09:59;13.40;85.30
22035;DHT22;11181;51.002;4.356;2023-03-01T13:12:43;13.60;85.00
22035;DHT22;11181;51.002;4.356;2023-03-01T13:15:28;14.40;84.70
22035;DHT22;11181;51.002;4.356;2023-03-01T13:17:57;14.90;83.60
22035;DHT22;11181;51.002;4.356;2023-03-01T13:20:31;15.30;82.20
22035;DHT22;11181;51.002;4.356;2023-03-01T13:23:07;15.50;81.80
22035;DHT22;11181;51.002;4.356;2023-03-01T13:26:05;15.20;82.00
22035;DHT22;11181;51.002;4.356;2023-03-01T13:28:50;15.50;82.50
22035;DHT22;11181;51.002;4.356;2023-03-01T13:34:50;15.70;79.60
22035;DHT22;11181;51.002;4.356;2023-03-01T13:37:30;15.30;79.50
22035;DHT22;11181;51.002;4.356;2023-03-01T13:40:01;15.00;78.10
22035;DHT22;11181;51.002;4.356;2023-03-01T13:42:36;15.00;80.80
22035;DHT22;11181;51.002;4.356;2023-03-01T13:45:14;15.00;79.90
22035;DHT22;11181;51.002;4.356;2023-03-01T13:47:44;14.80;80.00
22035;DHT22;11181;51.002;4.356;2023-03-01T13:50:18;14.30;81.10
22035;DHT22;11181;51.002;4.356;2023-03-01T13:52:50;14.50;80.90
22035;DHT22;11181;51.002;4.356;2023-03-01T13:55:22;14.60;81.20
22035;DHT22;11181;51.002;4.356;2023-03-01T13:57:53;14.80;81.20
22035;DHT22;11181;51.002;4.356;2023-03-01T14:00:33;14.70;82.40
22035;DHT22;11181;51.002;4.356;2023-03-01T14:03:02;14.70;80.80
22035;DHT22;11181;51.002;4.356;2023-03-01T14:05:30;14.40;81.20
22035;DHT22;11181;51.002;4.356;2023-03-01T14:07:59;14.30;81.10
22035;DHT22;11181;51.002;4.356;2023-03-01T14:10:32;14.00;80.70
22035;DHT22;11181;51.002;4.356;2023-03-01T14:13:07;13.80;80.10
22035;DHT22;11181;51.002;4.356;2023-03-01T14:15:42;13.40;78.70
22035;DHT22;11181;51.002;4.356;2023-03-01T14:18:16;13.10;81.20
22035;DHT22;11181;51.002;4.356;2023-03-01T14:20:48;13.40;81.90
22035;DHT22;11181;51.002;4.356;2023-03-01T14:23:21;13.10;82.00
22035;DHT22;11181;51.002;4.356;2023-03-01T14:25:49;13.00;80.40
22035;DHT22;11181;51.002;4.356;2023-03-01T14:28:19;13.00;82.00
22035;DHT22;11181;51.002;4.356;2023-03-01T14:30:48;13.10;82.10
22035;DHT22;11181;51.002;4.356;2023-03-01T14:33:20;13.00;79.70
22035;DHT22;11181;51.002;4.356;2023-03-01T14:35:57;13.40;80.60
22035;DHT22;11181;51.002;4.356;2023-03-01T14:38:31;13.50;80.90
22035;DHT22;11181;51.002;4.356;2023-03-01T14:41:02;13.70;83.30
22035;DHT22;11181;51.002;4.356;2023-03-01T14:43:30;13.50;83.70
22035;DHT22;11181;51.002;4.356;2023-03-01T14:45:58;13.60;82.60
22035;DHT22;11181;51.002;4.356;2023-03-01T14:48:25;13.70;83.20
22035;DHT22;11181;51.002;4.356;2023-03-01T14:50:53;13.80;83.10
22035;DHT22;11181;51.002;4.356;2023-03-01T14:53:24;13.70;83.20
22035;DHT22;11181;51.002;4.356;2023-03-01T14:55:54;13.80;83.00
22035;DHT22;11181;51.002;4.356;2023-03-01T14:58:23;14.10;82.00
22035;DHT22;11181;51.002;4.356;2023-03-01T15:00:53;13.50;80.30
22035;DHT22;11181;51.002;4.356;2023-03-01T15:03:26;13.40;82.30
22035;DHT22;11181;51.002;4.356;2023-03-01T15:05:55;13.50;83.00
22035;DHT22;11181;51.002;4.356;2023-03-01T15:08:24;13.80;82.80
22035;DHT22;11181;51.002;4.356;2023-03-01T15:11:02;14.10;82.20
22035;DHT22;11181;51.002;4.356;2023-03-01T15:13:31;14.20;82.80
22035;DHT22;11181;51.002;4.356;2023-03-01T15:16:05;13.90;81.70
22035;DHT22;11181;51.002;4.356;2023-03-01T15:18:34;13.70;81.70
22035;DHT22;11181;51.002;4.356;2023-03-01T15:21:07;13.10;81.60
22035;DHT22;11181;51.002;4.356;2023-03-01T15:23:35;13.10;83.60
22035;DHT22;11181;51.002;4.356;2023-03-01T15:26:04;13.40;84.00
22035;DHT22;11181;51.002;4.356;2023-03-01T15:28:33;13.80;83.80
22035;DHT22;11181;51.002;4.356;2023-03-01T15:31:03;14.00;82.60
22035;DHT22;11181;51.002;4.356;2023-03-01T15:33:34;13.90;82.30
22035;DHT22;11181;51.002;4.356;2023-03-01T15:36:03;13.90;81.30
22035;DHT22;11181;51.002;4.356;2023-03-01T15:38:33;13.60;82.50
22035;DHT22;11181;51.002;4.356;2023-03-01T15:41:02;13.50;81.80
22035;DHT22;11181;51.002;4.356;2023-03-01T15:43:43;13.40;82.80
22035;DHT22;11181;51.002;4.356;2023-03-01T15:46:19;13.40;80.90
22035;DHT22;11181;51.002;4.356;2023-03-01T15:48:48;13.40;82.40
22035;DHT22;11181;51.002;4.356;2023-03-01T15:51:22;13.60;82.10
22035;DHT22;11181;51.002;4.356;2023-03-01T15:53:51;13.10;80.20
22035;DHT22;11181;51.002;4.356;2023-03-01T15:56:18;12.90;82.50
22035;DHT22;11181;51.002;4.356;2023-03-01T15:58:47;13.00;82.10
22035;DHT22;11181;51.002;4.356;2023-03-01T16:01:15;13.00;81.40
22035;DHT22;11181;51.002;4.356;2023-03-01T16:03:46;13.20;81.50
22035;DHT22;11181;51.002;4.356;2023-03-01T16:06:13;13.50;81.10
22035;DHT22;11181;51.002;4.356;2023-03-01T16:08:40;12.80;80.10
22035;DHT22;11181;51.002;4.356;2023-03-01T16:11:14;13.00;82.10
22035;DHT22;11181;51.002;4.356;2023-03-01T16:13:43;13.20;80.60
22035;DHT22;11181;51.002;4.356;2023-03-01T16:16:13;12.60;80.30
22035;DHT22;11181;51.002;4.356;2023-03-01T16:18:42;12.40;79.00